Bookmark and Share
Track history (hours):
 

Pilot Vessel Akarana

Last reported at 2014-Apr-20 06:07 UTC. Time now 2014-Apr-20 08:48 UTC.
Position S 36°50' E 174°47'.

Length 15 m; draft 1.6 m.

Type: Pilot. MMSI: 512000344.

NotesDate/timePositionNaut miles runAvg speedWind from/ knotsBaromVisibWave heightAir tempDewpointWater temp
2014-Apr-20 06:07S 36°50' E 174°47'0 0.2
2014-Apr-20 03:18S 36°51' E 174°47'0 0.0
2014-Apr-20 02:18S 36°51' E 174°47'5 5.8
2014-Apr-20 01:30S 36°46' E 174°49'5 1.1
2014-Apr-19 21:25S 36°51' E 174°47'0 0.0
2014-Apr-19 19:31S 36°51' E 174°47'0 0.0
2014-Apr-19 18:16S 36°51' E 174°47'0 0.0
2014-Apr-19 17:31S 36°51' E 174°47'0 0.0
2014-Apr-19 11:13S 36°51' E 174°47'2 3.1
2014-Apr-19 10:33S 36°49' E 174°49'2 2.0
2014-Apr-19 09:30S 36°51' E 174°47'2 2.1
2014-Apr-19 08:30S 36°49' E 174°49'2 2.1
2014-Apr-19 07:31S 36°51' E 174°47'5 2.6
2014-Apr-19 05:33S 36°46' E 174°49'5 3.4
2014-Apr-19 04:05S 36°51' E 174°47'0 0.0
2014-Apr-18 23:21S 36°51' E 174°47'0 0.0
2014-Apr-18 22:33S 36°51' E 174°47'0 0.0
2014-Apr-18 21:12S 36°51' E 174°47'3 1.8
2014-Apr-18 19:31S 36°48' E 174°49'3 1.5
2014-Apr-18 17:29S 36°51' E 174°47'5 2.4
2014-Apr-18 15:32S 36°46' E 174°49'5 2.2
2014-Apr-18 13:21S 36°51' E 174°47'0 0.0
2014-Apr-18 12:32S 36°51' E 174°47'5 5.1
2014-Apr-18 11:30S 36°46' E 174°49'2 2.5
2014-Apr-18 10:33S 36°48' E 174°49'3 2.9
2014-Apr-18 09:30S 36°51' E 174°47'0 0.0
2014-Apr-18 08:33S 36°51' E 174°47'0 0.0
2014-Apr-18 07:33S 36°51' E 174°47'0 0.0
2014-Apr-18 06:32S 36°51' E 174°47'0 0.0
2014-Apr-18 05:32S 36°51' E 174°47'0 0.0
2014-Apr-18 04:17S 36°51' E 174°47'3 1.6
2014-Apr-18 02:13S 36°48' E 174°49'3 0.8
2014-Apr-17 22:30S 36°50' E 174°47'0 0.3
2014-Apr-17 21:33S 36°51' E 174°47'0 0.1
2014-Apr-17 20:26S 36°51' E 174°47'0 0.1
2014-Apr-17 19:31S 36°51' E 174°47'0 0.0
2014-Apr-17 18:33S 36°51' E 174°47'4 0.7
2014-Apr-17 12:22S 36°47' E 174°49'2 2.1
2014-Apr-17 11:33S 36°48' E 174°50'2 2.1
2014-Apr-17 10:33S 36°46' E 174°49'5 3.5
2014-Apr-17 09:09S 36°51' E 174°47'0 0.0
2014-Apr-17 06:11S 36°51' E 174°47'3 0.6
2014-Apr-17 01:15S 36°48' E 174°49'3 4.0
2014-Apr-17 00:30S 36°51' E 174°47'0 0.0
2014-Apr-16 19:10S 36°51' E 174°47'6 9.4
2014-Apr-16 18:32S 36°45' E 174°49'6 6.0
2014-Apr-16 17:33S 36°51' E 174°47'2 0.7
2014-Apr-16 14:07S 36°49' E 174°49'1 1.2
2014-Apr-16 13:22S 36°48' E 174°49'1 1.3
2014-Apr-16 12:28S 36°47' E 174°48'3 1.0
2014-Apr-16 09:19S 36°50' E 174°47'0 0.0
2014-Apr-16 01:19S 36°51' E 174°47'3 4.3
2014-Apr-16 00:33S 36°48' E 174°50'3 3.2
2014-Apr-15 23:33S 36°45' E 174°50'3 0.8
2014-Apr-15 19:30S 36°48' E 174°49'3 2.8
2014-Apr-15 18:33S 36°45' E 174°49'6 4.9
2014-Apr-15 17:25S 36°51' E 174°47'0 0.0
2014-Apr-15 03:33S 36°51' E 174°47'3 2.7
2014-Apr-15 02:34S 36°49' E 174°50'3 0.3
2014-Apr-14 16:33S 36°46' E 174°49'5 0.7
2014-Apr-14 09:33S 36°51' E 174°47'5 2.5
2014-Apr-14 07:33S 36°46' E 174°49'5 2.3
2014-Apr-14 05:29S 36°50' E 174°47'0 0.0
2014-Apr-13 22:23S 36°51' E 174°47'3 2.3
2014-Apr-13 21:15S 36°49' E 174°49'3 3.4
2014-Apr-13 20:28S 36°51' E 174°47'0 0.0
2014-Apr-13 19:17S 36°51' E 174°47'3 3.4
2014-Apr-13 18:26S 36°48' E 174°49'3 3.8
2014-Apr-13 17:33S 36°45' E 174°49'3 0.3
2014-Apr-13 08:31S 36°48' E 174°49'3 3.4
2014-Apr-13 07:33S 36°51' E 174°47'0 0.0
2014-Apr-13 06:14S 36°51' E 174°47'3 4.4
2014-Apr-13 05:33S 36°48' E 174°49'3 2.7
2014-Apr-13 04:32S 36°46' E 174°50'5 1.2
2014-Apr-13 00:10S 36°51' E 174°47'0 0.0
2014-Apr-12 20:04S 36°51' E 174°47'3 6.6
2014-Apr-12 19:34S 36°48' E 174°49'3 3.4
2014-Apr-12 18:33S 36°51' E 174°47'6 6.5
2014-Apr-12 17:33S 36°45' E 174°50'1 0.1
2014-Apr-12 09:34S 36°46' E 174°50'2 0.5
2014-Apr-12 05:23S 36°48' E 174°49'3 3.4
2014-Apr-12 04:21S 36°51' E 174°47'3 1.0
2014-Apr-12 01:32S 36°49' E 174°49'1 0.4
2014-Apr-11 23:22S 36°49' E 174°49'0 0.5
2014-Apr-11 22:32S 36°49' E 174°49'4 1.2
2014-Apr-11 19:33S 36°45' E 174°50'6 5.8
2014-Apr-11 18:33S 36°51' E 174°47'5 0.5
2014-Apr-11 09:09S 36°46' E 174°50'5 2.5
2014-Apr-11 07:05S 36°51' E 174°47'3 1.9
2014-Apr-11 05:26S 36°48' E 174°49'3 3.1
2014-Apr-11 04:25S 36°51' E 174°47'0 0.0
2014-Apr-11 03:22S 36°51' E 174°47'4 2.0
2014-Apr-11 01:33S 36°47' E 174°49'0 0.2
2014-Apr-11 00:26S 36°48' E 174°49'3 2.9
2014-Apr-10 23:33S 36°45' E 174°50'2 0.7
2014-Apr-10 20:17S 36°47' E 174°49'2 0.7
2014-Apr-10 17:29S 36°49' E 174°49'2 2.3
2014-Apr-10 16:33S 36°51' E 174°47'3 0.7
2014-Apr-10 12:11S 36°48' E 174°49'3 4.4
2014-Apr-10 11:29S 36°51' E 174°47'5 5.4
2014-Apr-10 10:33S 36°46' E 174°49'1 0.5
2014-Apr-10 08:33S 36°47' E 174°48'  

Dump ship's entire track history

sailing weather and tide predictions

Pilot Vessel Akarana — ZMT2938 — position and weather